Time;durP1;ratioP1;P1;durP2;ratioP2;P2;SDS_P1;SDS_P2;PMS_P1;PMS_P2;Temp;Humidity;BMP_temperature;BMP_pressure;BME280_temperature;BME280_humidity;BME280_pressure;Samples;Min_cycle;Max_cycle;Signal;HPM_P1;HPM_P2
2023/05/12 00:00:03;;;;;;;236.82;29.05;;;;;;;19.80;70.25;93976.75;5065660;28;20024;-94
2023/05/12 00:02:28;;;;;;;500.42;34.05;;;;;;;20.20;64.61;93976.00;5081938;28;20081;-93
2023/05/12 00:04:54;;;;;;;42.97;22.20;;;;;;;20.65;62.70;93967.28;5065686;28;20028;-94
2023/05/12 00:07:20;;;;;;;33.90;21.00;;;;;;;21.49;58.90;93960.16;5065682;28;20032;-94
2023/05/12 00:09:45;;;;;;;33.28;18.35;;;;;;;21.66;57.41;93977.69;5049215;28;20028;-93
2023/05/12 00:12:10;;;;;;;35.38;19.63;;;;;;;21.60;55.72;93977.16;5081473;28;20039;-94
2023/05/12 00:14:36;;;;;;;549.72;35.55;;;;;;;21.10;58.68;93976.78;5081248;28;20032;-94
2023/05/12 00:17:03;;;;;;;71.30;20.02;;;;;;;21.36;60.72;93964.03;5065397;28;20024;-94
2023/05/12 00:19:29;;;;;;;29.50;18.08;;;;;;;21.84;57.11;93974.63;5065387;28;20343;-93
2023/05/12 00:21:55;;;;;;;97.57;19.88;;;;;;;21.64;56.56;93963.13;5064806;28;20024;-93
2023/05/12 00:24:20;;;;;;;114.43;21.92;;;;;;;21.20;58.46;93967.50;5081784;28;20125;-95
2023/05/12 00:26:46;;;;;;;446.85;31.27;;;;;;;19.69;65.55;93965.78;5099576;28;20310;-94
2023/05/12 00:29:11;;;;;;;53.30;19.92;;;;;;;20.89;62.27;93966.38;5081847;28;20047;-93
2023/05/12 00:31:37;;;;;;;33.63;20.48;;;;;;;21.31;60.00;93976.50;5081355;28;20352;-93
2023/05/12 00:34:03;;;;;;;56.75;20.30;;;;;;;21.49;57.79;93970.81;5064644;28;20079;-93
2023/05/12 00:36:29;;;;;;;31.00;18.20;;;;;;;21.62;56.93;93974.16;5064469;28;20062;-94
2023/05/12 00:38:55;;;;;;;27.15;16.75;;;;;;;21.90;55.20;93967.94;5081522;28;20089;-95
2023/05/12 00:41:23;;;;;;;26.83;16.67;;;;;;;22.48;54.32;93978.97;5064961;28;20032;-94
2023/05/12 00:43:49;;;;;;;30.20;17.75;;;;;;;21.68;54.68;93972.78;5064854;28;20020;-94
2023/05/12 00:46:16;;;;;;;38.28;18.05;;;;;;;21.68;54.36;93964.03;5081349;28;20035;-94
2023/05/12 00:48:43;;;;;;;31.30;18.40;;;;;;;20.39;60.28;93977.28;5064528;28;20455;-94
2023/05/12 00:51:09;;;;;;;31.35;20.33;;;;;;;20.51;63.05;93978.31;5099639;28;20328;-93
2023/05/12 00:53:36;;;;;;;29.58;17.65;;;;;;;21.39;58.98;93969.47;5064261;28;20028;-93
2023/05/12 00:56:02;;;;;;;29.13;17.30;;;;;;;21.52;56.29;93962.16;5047489;28;20040;-94
2023/05/12 00:58:29;;;;;;;27.73;17.10;;;;;;;19.99;60.33;93956.78;5064304;28;20090;-94
2023/05/12 01:00:55;;;;;;;28.80;16.52;;;;;;;20.80;59.54;93960.41;5065013;28;20028;-94
2023/05/12 01:03:21;;;;;;;36.85;15.73;;;;;;;21.12;56.33;93965.78;5064545;28;20046;-94
2023/05/12 01:06:17;;;;;;;23.70;12.98;;;;;;;22.04;53.88;93964.75;5081846;28;20039;-94
2023/05/12 01:08:43;;;;;;;17.80;11.60;;;;;;;21.23;55.30;93956.16;5072571;28;20075;-93
2023/05/12 01:11:09;;;;;;;17.48;10.52;;;;;;;21.25;54.25;93947.81;5081432;28;20062;-95
2023/05/12 01:13:36;;;;;;;18.50;11.43;;;;;;;19.73;58.21;93963.25;5081148;28;20059;-94
2023/05/12 01:16:02;;;;;;;18.83;10.63;;;;;;;20.14;58.40;93953.41;5064122;28;20353;-94
2023/05/12 01:18:28;;;;;;;15.82;10.60;;;;;;;20.84;54.05;93943.44;5080754;28;20031;-94
2023/05/12 01:20:55;;;;;;;15.57;10.27;;;;;;;20.66;52.46;93942.19;5080632;28;20028;-94
2023/05/12 01:23:23;;;;;;;14.95;9.95;;;;;;;21.04;51.87;93949.63;5080761;28;20042;-94
2023/05/12 01:25:49;;;;;;;15.48;9.43;;;;;;;20.91;52.95;93953.50;5079586;28;20131;-94
2023/05/12 01:28:15;;;;;;;15.55;9.52;;;;;;;20.61;53.16;93953.88;5079575;28;20114;-93
2023/05/12 01:30:41;;;;;;;14.27;9.55;;;;;;;20.67;53.30;93947.19;5063694;28;20498;-94
2023/05/12 01:33:08;;;;;;;17.80;10.25;;;;;;;20.77;51.93;93946.66;5062784;28;20035;-94
2023/05/12 01:35:33;;;;;;;14.55;9.82;;;;;;;20.48;52.67;93951.25;5064128;28;20020;-93
2023/05/12 01:37:59;;;;;;;14.07;9.43;;;;;;;20.26;52.52;93949.16;5063901;28;20020;-95
2023/05/12 01:40:25;;;;;;;18.92;9.82;;;;;;;20.12;53.13;93950.31;5063482;28;20026;-94
2023/05/12 01:42:51;;;;;;;15.23;9.63;;;;;;;20.40;51.98;93957.53;5080480;28;20118;-94
2023/05/12 01:45:17;;;;;;;15.73;9.98;;;;;;;20.03;54.23;93955.00;5063673;28;20581;-94
2023/05/12 01:47:43;;;;;;;15.15;10.13;;;;;;;20.03;52.82;93947.03;5080499;28;20028;-94
2023/05/12 01:50:09;;;;;;;16.45;10.75;;;;;;;19.83;54.49;93946.84;5063769;28;20028;-93
2023/05/12 01:52:35;;;;;;;14.43;9.00;;;;;;;20.35;51.96;93941.78;5063623;28;20471;-94
2023/05/12 01:55:01;;;;;;;17.48;9.38;;;;;;;20.38;51.92;93948.34;5080221;28;20024;-94
2023/05/12 01:57:26;;;;;;;17.63;10.27;;;;;;;19.36;53.98;93946.22;5063518;28;20027;-94
2023/05/12 01:59:51;;;;;;;20.25;10.63;;;;;;;19.11;58.05;93945.47;5063080;28;20032;-94
2023/05/12 02:02:17;;;;;;;17.02;10.52;;;;;;;19.90;54.71;93947.03;5063692;28;20024;-92
2023/05/12 02:04:43;;;;;;;21.23;10.10;;;;;;;19.97;53.05;93951.81;5062978;28;20032;-94
2023/05/12 02:07:09;;;;;;;14.52;9.23;;;;;;;19.92;52.45;93946.72;5098247;28;20024;-92
2023/05/12 02:09:35;;;;;;;16.73;10.63;;;;;;;18.48;58.60;93949.88;5063163;28;20131;-93
2023/05/12 02:12:01;;;;;;;20.40;12.55;;;;;;;18.45;61.87;93945.22;5063245;28;20031;-93
2023/05/12 02:14:26;;;;;;;19.77;10.52;;;;;;;19.68;56.43;93945.63;5063201;28;20024;-93
2023/05/12 02:16:54;;;;;;;16.40;10.52;;;;;;;19.91;54.43;93942.50;5063241;28;20020;-94
2023/05/12 02:19:20;;;;;;;19.50;11.60;;;;;;;19.62;55.32;93949.66;5063569;28;20023;-94
2023/05/12 02:21:45;;;;;;;16.27;10.40;;;;;;;19.82;55.39;93947.94;5063418;28;20379;-94
2023/05/12 02:24:11;;;;;;;22.27;12.68;;;;;;;20.31;53.41;93940.94;5079678;28;20020;-93
2023/05/12 02:26:36;;;;;;;20.48;12.45;;;;;;;19.87;54.21;93952.22;5063003;28;20455;-94
2023/05/12 02:29:02;;;;;;;17.20;11.15;;;;;;;20.19;53.00;93947.09;5063109;28;20031;-94
2023/05/12 02:31:27;;;;;;;17.52;11.40;;;;;;;20.20;53.05;93938.00;5063566;28;20089;-94
2023/05/12 02:33:53;;;;;;;16.55;10.65;;;;;;;20.38;52.47;93948.34;5079590;28;20322;-93
2023/05/12 02:36:18;;;;;;;14.77;9.93;;;;;;;20.38;52.01;93949.13;5079384;28;20031;-95
2023/05/12 02:38:44;;;;;;;19.00;11.65;;;;;;;19.24;55.42;93942.81;5062846;28;20085;-94
2023/05/12 02:41:09;;;;;;;17.15;10.98;;;;;;;18.34;61.52;93938.78;5079441;28;20053;-93
2023/05/12 02:43:35;;;;;;;18.13;11.80;;;;;;;18.73;60.69;93943.88;5063277;28;20081;-94
2023/05/12 02:46:00;;;;;;;21.75;12.80;;;;;;;18.47;61.96;93947.56;5063047;28;20032;-93
2023/05/12 02:48:26;;;;;;;19.92;12.68;;;;;;;18.12;62.68;93939.91;5062825;28;20074;-94
2023/05/12 02:50:51;;;;;;;22.77;13.07;;;;;;;18.98;61.73;93944.66;5062761;28;20027;-94
2023/05/12 02:53:17;;;;;;;19.67;11.25;;;;;;;19.78;56.73;93944.41;5062737;28;20046;-94
2023/05/12 02:55:42;;;;;;;22.15;12.43;;;;;;;19.97;56.05;93937.75;5079584;28;20081;-94
2023/05/12 02:58:07;;;;;;;16.75;10.68;;;;;;;19.91;55.27;93939.84;5079458;28;20081;-92
2023/05/12 03:00:33;;;;;;;20.52;12.27;;;;;;;20.08;54.76;93952.09;5079248;28;20034;-92
2023/05/12 03:02:58;;;;;;;15.82;10.50;;;;;;;20.18;53.99;93940.97;5097085;28;20032;-92
2023/05/12 03:05:24;;;;;;;18.17;10.63;;;;;;;20.52;53.44;93937.31;5062559;28;20036;-93
2023/05/12 03:07:49;;;;;;;17.98;11.60;;;;;;;20.25;53.05;93950.28;5079124;28;20032;-93
2023/05/12 03:10:16;;;;;;;19.80;9.30;;;;;;;20.88;52.86;93948.84;5062672;28;20032;-93
2023/05/12 03:12:41;;;;;;;16.77;11.35;;;;;;;20.57;52.82;93945.03;5062740;28;20486;-93
2023/05/12 03:18:29;;;;;;;19.92;11.25;;;;;;;20.13;54.75;93943.91;5097038;28;20039;-92
2023/05/12 03:20:56;;;;;;;17.02;11.50;;;;;;;20.41;53.78;93935.13;5078980;28;20430;-93
2023/05/12 03:23:22;;;;;;;17.08;11.32;;;;;;;19.53;55.43;93947.13;5096913;28;20345;-93
2023/05/12 03:25:47;;;;;;;18.85;10.75;;;;;;;20.29;54.86;93943.91;5079102;28;20028;-93
2023/05/12 03:28:12;;;;;;;18.80;10.57;;;;;;;20.57;53.57;93943.13;5078780;28;20345;-94
2023/05/12 03:30:38;;;;;;;17.63;10.38;;;;;;;20.48;52.05;93940.63;5062449;28;20035;-93
2023/05/12 03:33:03;;;;;;;21.35;11.52;;;;;;;19.69;55.58;93935.78;5062374;28;20458;-93
2023/05/12 03:35:29;;;;;;;21.00;11.88;;;;;;;19.94;55.66;93938.41;5079051;28;20081;-93
2023/05/12 03:37:55;;;;;;;16.80;11.32;;;;;;;20.47;53.81;93935.66;5078860;28;20024;-93
2023/05/12 03:40:20;;;;;;;14.50;9.63;;;;;;;20.72;52.58;93938.94;5079145;28;20034;-93
2023/05/12 03:42:46;;;;;;;21.55;11.10;;;;;;;20.59;52.61;93937.47;5062432;28;20028;-92
2023/05/12 03:45:12;;;;;;;17.77;10.65;;;;;;;20.73;51.94;93927.19;5078696;28;20050;-93
2023/05/12 03:47:39;;;;;;;15.85;10.43;;;;;;;19.67;56.05;93925.50;5096671;28;20032;-93
2023/05/12 03:50:05;;;;;;;16.77;10.02;;;;;;;20.85;53.79;93936.25;5079664;28;20046;-93
2023/05/12 03:52:37;;;;;;;17.40;10.10;;;;;;;20.89;52.89;93929.09;5082245;28;20024;-93
2023/05/12 03:55:03;;;;;;;16.17;10.35;;;;;;;20.87;52.37;93936.66;5066126;28;20024;-93
2023/05/12 03:57:28;;;;;;;17.23;9.63;;;;;;;20.41;53.81;93929.03;5065902;28;20118;-93
2023/05/12 03:59:54;;;;;;;17.13;10.10;;;;;;;20.95;52.20;93935.72;5065725;28;20467;-93
2023/05/12 04:02:19;;;;;;;19.13;10.65;;;;;;;20.96;50.90;93926.63;5066025;28;20020;-93
2023/05/12 04:04:45;;;;;;;16.95;10.75;;;;;;;20.10;52.67;93925.97;5065527;28;20020;-92
2023/05/12 04:07:11;;;;;;;18.85;9.82;;;;;;;20.93;52.68;93935.28;5065628;28;20123;-93
2023/05/12 04:09:36;;;;;;;19.77;10.85;;;;;;;21.10;51.54;93930.75;5082189;28;20020;-92
2023/05/12 04:12:02;;;;;;;14.35;9.43;;;;;;;21.16;51.24;93926.69;5082259;28;20024;-92
2023/05/12 04:14:28;;;;;;;14.60;9.25;;;;;;;21.22;50.77;93927.19;5082053;28;20452;-92
2023/05/12 04:16:53;;;;;;;13.70;9.35;;;;;;;21.28;50.52;93917.81;5081760;28;20020;-93
2023/05/12 04:19:18;;;;;;;15.43;10.02;;;;;;;20.91;51.20;93924.19;5065537;28;20314;-92
2023/05/12 04:21:44;;;;;;;17.52;10.00;;;;;;;21.02;50.26;93922.56;5081912;28;20059;-93
2023/05/12 04:24:10;;;;;;;13.23;9.18;;;;;;;21.30;50.10;93926.22;5065244;28;20016;-93
2023/05/12 04:26:35;;;;;;;13.60;9.38;;;;;;;21.09;49.96;93921.97;5099711;28;20375;-92
2023/05/12 04:29:01;;;;;;;17.15;9.80;;;;;;;20.26;53.11;93928.66;5081627;28;20024;-93
2023/05/12 04:31:27;;;;;;;14.95;8.98;;;;;;;21.17;51.28;93917.56;5081593;28;20028;-93
2023/05/12 04:33:54;;;;;;;22.77;9.43;;;;;;;21.24;50.77;93917.75;5081667;28;20103;-93
2023/05/12 04:36:20;;;;;;;14.95;10.00;;;;;;;21.46;49.38;93924.34;5064534;28;20035;-90
2023/05/12 04:38:45;;;;;;;15.48;10.45;;;;;;;21.83;49.31;93919.75;5064793;28;20341;-91
2023/05/12 04:41:11;;;;;;;16.50;10.38;;;;;;;21.63;49.22;93911.72;5081166;28;20020;-90
2023/05/12 04:43:36;;;;;;;15.77;10.27;;;;;;;21.69;49.15;93912.25;5081189;28;20032;-90
2023/05/12 04:46:01;;;;;;;21.50;11.13;;;;;;;21.64;48.75;93913.28;5064323;28;20080;-90
2023/05/12 04:48:30;;;;;;;17.67;11.05;;;;;;;21.47;49.25;93917.09;5080738;28;20028;-91
2023/05/12 04:50:59;;;;;;;18.80;10.40;;;;;;;22.26;48.60;93922.50;5081062;28;20027;-91
2023/05/12 04:53:25;;;;;;;16.73;10.13;;;;;;;21.98;48.83;93931.50;5064320;28;20024;-91
2023/05/12 04:55:51;;;;;;;17.13;10.75;;;;;;;21.12;50.45;93937.25;5080812;28;20024;-92
2023/05/12 04:58:16;;;;;;;14.57;10.00;;;;;;;21.73;49.14;93929.88;5064419;28;20020;-91
2023/05/12 05:00:42;;;;;;;16.70;10.13;;;;;;;21.27;49.77;93938.38;5064298;28;20078;-92
2023/05/12 05:03:08;;;;;;;20.73;11.18;;;;;;;21.61;49.87;93940.63;5064486;28;20341;-92
2023/05/12 05:05:33;;;;;;;19.80;11.38;;;;;;;21.28;51.09;93945.25;5064542;28;20031;-93
2023/05/12 05:08:00;;;;;;;21.45;10.65;;;;;;;22.16;49.69;93937.94;5064575;28;20071;-89
2023/05/12 05:10:26;;;;;;;17.85;10.48;;;;;;;22.31;48.40;93946.22;5064674;28;20094;-93
2023/05/12 05:12:51;;;;;;;19.20;10.50;;;;;;;22.38;48.80;93949.06;5064515;28;20020;-93
2023/05/12 05:15:16;;;;;;;13.55;8.73;;;;;;;21.35;51.76;93935.84;5064215;28;20501;-93
2023/05/12 05:17:42;;;;;;;14.90;9.77;;;;;;;21.72;49.86;93944.31;5064126;28;20012;-93
2023/05/12 05:20:08;;;;;;;19.42;9.30;;;;;;;21.65;49.70;93938.81;5064001;28;20122;-93
2023/05/12 05:22:33;;;;;;;14.77;8.50;;;;;;;22.17;48.85;93933.41;5064049;28;20024;-92
2023/05/12 05:24:59;;;;;;;17.52;8.77;;;;;;;22.16;47.42;93945.97;5064036;28;20023;-93
2023/05/12 05:27:24;;;;;;;18.48;9.57;;;;;;;21.75;48.21;93940.19;5064220;28;20028;-93
2023/05/12 05:29:49;;;;;;;17.55;10.00;;;;;;;20.83;49.92;93943.81;5063796;28;20372;-93
2023/05/12 05:32:15;;;;;;;14.70;9.32;;;;;;;21.50;49.87;93951.03;5064383;28;20024;-93
2023/05/12 05:34:41;;;;;;;12.88;9.05;;;;;;;21.94;49.54;93958.09;5063663;28;20507;-93
2023/05/12 05:37:06;;;;;;;15.32;9.45;;;;;;;22.26;49.37;93967.88;5063873;28;20023;-92
2023/05/12 05:39:32;;;;;;;19.73;9.35;;;;;;;20.92;54.40;93972.91;5064055;28;20419;-93
2023/05/12 05:41:57;;;;;;;16.48;9.52;;;;;;;21.93;53.04;93969.88;5063870;28;20028;-93
2023/05/12 05:47:45;;;;;;;13.15;8.35;;;;;;;20.55;55.32;93976.53;5097883;28;20074;-92
2023/05/12 05:50:11;;;;;;;15.77;9.68;;;;;;;20.59;55.05;93986.16;5063560;28;20024;-92
2023/05/12 05:52:36;;;;;;;17.40;9.95;;;;;;;20.68;56.28;93986.00;5080201;28;20053;-93
2023/05/12 05:55:02;;;;;;;15.05;9.40;;;;;;;21.50;53.87;93980.34;5063498;28;20409;-92
2023/05/12 05:57:27;;;;;;;19.05;10.70;;;;;;;20.56;59.30;93996.69;5063458;28;20024;-93
2023/05/12 05:59:53;;;;;;;23.00;11.02;;;;;;;21.17;57.84;93987.63;5079769;28;20027;-92
2023/05/12 06:02:21;;;;;;;22.75;10.77;;;;;;;21.46;57.09;93996.28;5063620;28;20437;-92
2023/05/12 06:04:47;;;;;;;17.88;10.60;;;;;;;22.00;57.02;94001.28;5063615;28;20463;-92
2023/05/12 06:07:13;;;;;;;17.95;10.30;;;;;;;21.70;54.69;93988.44;5063254;28;20028;-92
2023/05/12 06:09:38;;;;;;;25.58;10.43;;;;;;;22.11;56.39;93993.47;5063145;28;20051;-93
2023/05/12 06:12:04;;;;;;;18.17;8.77;;;;;;;22.77;53.24;93995.50;5079724;28;20027;-92
2023/05/12 06:14:29;;;;;;;13.90;8.68;;;;;;;23.33;48.52;93994.19;5062614;28;20027;-92
2023/05/12 06:16:54;;;;;;;10.25;7.03;;;;;;;23.57;50.12;93994.91;5079981;28;20031;-93
2023/05/12 06:19:20;;;;;;;9.57;6.85;;;;;;;24.22;48.93;93987.00;5062962;28;20360;-92
2023/05/12 06:21:45;;;;;;;13.02;7.55;;;;;;;23.76;50.04;93996.72;5062781;28;20024;-92
2023/05/12 06:24:11;;;;;;;10.82;6.93;;;;;;;23.96;49.99;93983.25;5062924;28;20318;-93
2023/05/12 06:26:36;;;;;;;8.38;5.90;;;;;;;23.65;50.59;93988.56;5062766;28;20123;-92
2023/05/12 06:29:02;;;;;;;9.15;6.00;;;;;;;23.14;50.44;93987.00;5062854;28;20024;-92
2023/05/12 06:31:27;;;;;;;11.15;6.32;;;;;;;23.09;50.03;93990.72;5063011;28;20494;-93
2023/05/12 06:33:53;;;;;;;7.68;5.18;;;;;;;24.95;46.73;93994.72;5062838;28;20036;-91
2023/05/12 06:36:18;;;;;;;13.88;6.47;;;;;;;23.59;47.89;93998.00;5062725;28;20032;-93
2023/05/12 06:38:44;;;;;;;9.90;5.95;;;;;;;25.42;47.07;94005.06;5062768;28;20032;-93
2023/05/12 06:41:09;;;;;;;12.27;6.35;;;;;;;24.85;48.94;93998.81;5079692;28;20073;-93
2023/05/12 06:43:34;;;;;;;13.43;5.68;;;;;;;26.08;46.75;94006.28;5062747;28;20437;-93
2023/05/12 06:46:00;;;;;;;10.15;6.00;;;;;;;26.05;45.11;94007.03;5062838;28;20590;-92
2023/05/12 06:48:26;;;;;;;9.38;5.07;;;;;;;26.45;44.59;94004.56;5062682;28;20050;-94
2023/05/12 06:50:52;;;;;;;9.55;4.68;;;;;;;24.65;48.78;94010.84;5062563;28;20383;-92
2023/05/12 06:53:17;;;;;;;9.23;4.20;;;;;;;26.34;44.05;94005.28;5079293;28;20032;-92
2023/05/12 06:55:43;;;;;;;5.78;3.58;;;;;;;26.34;44.57;94001.81;5062852;28;20024;-92
2023/05/12 06:58:09;;;;;;;14.43;4.80;;;;;;;26.37;43.70;93996.44;5062609;28;20027;-94
2023/05/12 07:00:34;;;;;;;9.05;4.63;;;;;;;26.32;42.79;93996.03;5062634;28;20458;-92
2023/05/12 07:02:59;;;;;;;9.65;4.80;;;;;;;26.31;42.50;93997.19;5062532;28;20035;-93
2023/05/12 07:05:25;;;;;;;6.47;4.20;;;;;;;26.74;42.01;94002.69;5079165;28;20037;-93
2023/05/12 07:07:51;;;;;;;9.35;4.80;;;;;;;25.69;43.73;93989.56;5062496;28;20028;-92
2023/05/12 07:10:16;;;;;;;8.43;4.93;;;;;;;25.58;43.54;93996.03;5062344;28;20031;-92
2023/05/12 07:12:42;;;;;;;7.10;4.55;;;;;;;26.03;42.52;93999.34;5079127;28;20027;-92
2023/05/12 07:15:12;;;;;;;6.93;4.72;;;;;;;26.38;42.74;93998.00;5058811;28;20056;-91
2023/05/12 07:20:59;;;;;;;6.88;4.05;;;;;;;25.74;42.82;93998.41;5076544;28;20337;-92
2023/05/12 07:26:47;;;;;;;9.68;4.78;;;;;;;25.45;43.59;93996.28;5079816;28;20035;-92
2023/05/12 07:29:12;;;;;;;5.60;3.90;;;;;;;26.53;41.91;93996.13;5062665;28;20024;-91
2023/05/12 07:31:37;;;;;;;5.68;3.53;;;;;;;26.08;44.44;93990.19;5045947;28;20109;-91
2023/05/12 07:34:03;;;;;;;5.25;3.60;;;;;;;26.58;41.91;93981.56;5045893;28;20028;-91
2023/05/12 07:36:28;;;;;;;10.50;4.20;;;;;;;26.84;43.01;93993.16;5062411;28;20425;-92
2023/05/12 07:38:54;;;;;;;5.32;3.63;;;;;;;26.00;41.57;93992.06;5075295;28;20016;-92
2023/05/12 07:41:20;;;;;;;11.43;4.20;;;;;;;26.46;40.93;93987.28;5082349;28;20064;-92
2023/05/12 07:43:45;;;;;;;6.35;3.80;;;;;;;26.93;40.40;93993.56;5082387;28;20089;-92
2023/05/12 07:46:10;;;;;;;10.23;3.40;;;;;;;25.86;40.90;93986.63;5065310;28;20028;-92
2023/05/12 07:48:38;;;;;;;5.18;3.60;;;;;;;26.60;40.60;93991.91;5082332;28;20060;-91
2023/05/12 07:51:04;;;;;;;4.60;3.55;;;;;;;27.21;41.79;93992.06;5082493;28;20023;-91
2023/05/12 07:53:30;;;;;;;5.25;3.50;;;;;;;25.69;41.26;93989.56;5081742;28;20360;-91
2023/05/12 07:55:55;;;;;;;5.25;3.30;;;;;;;26.44;40.40;93987.66;5081923;28;20028;-91
2023/05/12 07:58:21;;;;;;;6.47;3.42;;;;;;;27.40;40.29;93997.44;5081851;28;20441;-90
2023/05/12 08:00:46;;;;;;;7.75;2.60;;;;;;;27.47;39.31;93992.81;5082016;28;20028;-91
2023/05/12 08:03:12;;;;;;;4.38;2.20;;;;;;;28.38;37.92;93997.28;5081755;28;20060;-92
2023/05/12 08:05:37;;;;;;;2.72;1.30;;;;;;;28.36;37.44;94001.13;5064901;28;20036;-92
2023/05/12 08:08:03;;;;;;;3.75;1.13;;;;;;;28.18;36.96;93997.75;5081864;28;20425;-90
2023/05/12 08:10:28;;;;;;;7.60;1.00;;;;;;;27.97;35.12;93995.84;5081794;28;20028;-91
2023/05/12 08:12:54;;;;;;;1.58;0.80;;;;;;;28.88;35.31;94002.47;5081669;28;20104;-91
2023/05/12 08:15:20;;;;;;;5.55;1.40;;;;;;;27.89;37.29;94000.50;5081581;28;20031;-91
2023/05/12 08:17:45;;;;;;;2.55;1.05;;;;;;;27.48;34.27;93999.75;5065073;28;20024;-92
2023/05/12 08:20:11;;;;;;;2.40;1.30;;;;;;;28.78;33.91;93989.78;5065122;28;20032;-92
2023/05/12 08:22:36;;;;;;;4.05;1.13;;;;;;;29.13;35.05;94000.75;5064915;28;20024;-91
2023/05/12 08:25:52;;;;;;;2.10;0.95;;;;;;;29.46;35.08;94001.28;5081439;28;20059;-91
2023/05/12 08:28:17;;;;;;;7.03;1.67;;;;;;;29.26;35.40;93996.44;5099212;28;20032;-91
2023/05/12 08:30:43;;;;;;;5.43;1.13;;;;;;;27.84;35.45;93990.13;5064741;28;20027;-91
2023/05/12 08:33:09;;;;;;;7.03;1.45;;;;;;;27.86;35.59;94001.28;5081362;28;20024;-92
2023/05/12 08:35:35;;;;;;;1.20;0.90;;;;;;;28.96;35.49;94005.09;5064266;28;20024;-91
2023/05/12 08:38:00;;;;;;;1.83;1.20;;;;;;;26.62;36.39;93995.78;5080935;28;20349;-92
2023/05/12 08:40:29;;;;;;;1.48;1.10;;;;;;;29.17;36.21;94006.88;5081286;28;20024;-92
2023/05/12 08:43:17;;;;;;;8.13;1.45;;;;;;;27.82;36.16;94000.50;5064438;28;20031;-91
2023/05/12 08:45:43;;;;;;;5.60;1.42;;;;;;;26.53;37.55;94001.50;5086137;28;20079;-91
2023/05/12 08:48:09;;;;;;;2.75;1.15;;;;;;;26.95;37.78;93996.63;5081023;28;20423;-91
2023/05/12 08:50:35;;;;;;;3.30;1.27;;;;;;;27.82;36.57;94000.50;5064500;28;20111;-92
2023/05/12 08:53:03;;;;;;;3.60;1.80;;;;;;;28.65;34.82;94008.34;5064542;28;20024;-92
2023/05/12 08:55:28;;;;;;;8.00;1.73;;;;;;;27.54;37.35;94005.53;5080261;28;20024;-92
2023/05/12 08:57:55;;;;;;;5.43;1.30;;;;;;;27.21;36.64;94010.88;5080219;28;20027;-90
2023/05/12 09:00:24;;;;;;;2.80;1.33;;;;;;;27.83;37.81;94007.41;5080902;28;20024;-93
2023/05/12 09:02:50;;;;;;;5.32;1.02;;;;;;;26.57;38.24;93998.84;5064505;28;20322;-91
2023/05/12 09:05:15;;;;;;;2.80;1.48;;;;;;;28.56;35.76;94000.69;5064348;28;20032;-92
2023/05/12 09:07:43;;;;;;;4.05;1.50;;;;;;;28.12;37.50;93997.34;5080469;28;20024;-91
2023/05/12 09:10:14;;;;;;;2.25;1.20;;;;;;;28.61;36.29;93994.88;5080678;28;20028;-92
2023/05/12 09:12:40;;;;;;;3.70;1.60;;;;;;;26.86;38.17;93996.25;5080563;28;20020;-91
2023/05/12 09:18:53;;;;;;;2.90;1.60;;;;;;;27.40;38.28;93997.44;5098478;28;20132;-90
2023/05/12 09:21:19;;;;;;;3.38;1.40;;;;;;;26.52;39.43;93993.81;5080334;28;20345;-92
2023/05/12 09:24:05;;;;;;;8.10;1.90;;;;;;;26.38;39.92;93998.00;5063825;28;20523;-90
2023/05/12 09:26:43;;;;;;;4.28;1.30;;;;;;;24.81;39.46;93995.34;5080223;28;20031;-90
2023/05/12 09:29:10;;;;;;;2.03;1.00;;;;;;;25.15;37.82;94002.56;5098229;28;20024;-91
2023/05/12 09:31:36;;;;;;;2.00;0.95;;;;;;;25.39;37.70;93998.53;5063866;28;20020;-92
2023/05/12 09:34:06;;;;;;;5.05;0.90;;;;;;;27.26;36.04;94000.88;5079917;28;20031;-90
2023/05/12 09:36:33;;;;;;;2.17;0.88;;;;;;;27.77;34.82;94005.13;5063331;28;20058;-92
2023/05/12 09:39:06;;;;;;;2.38;0.80;;;;;;;30.08;33.50;94008.84;5063401;28;20027;-92
2023/05/12 09:41:35;;;;;;;3.00;0.88;;;;;;;29.55;32.38;94006.22;5063674;28;20076;-92
2023/05/12 09:44:01;;;;;;;6.18;0.70;;;;;;;30.35;32.80;94000.06;5063034;28;20157;-91
2023/05/12 09:46:27;;;;;;;2.17;0.60;;;;;;;30.59;30.81;94001.72;5080037;28;20027;-92
2023/05/12 09:48:55;;;;;;;2.35;0.70;;;;;;;31.70;30.06;93995.06;5062610;28;20028;-92
2023/05/12 09:51:20;;;;;;;3.65;0.80;;;;;;;31.44;31.78;93988.56;5079732;28;20047;-92
2023/05/12 09:53:46;;;;;;;2.28;0.70;;;;;;;31.09;31.32;93991.38;5097680;28;20459;-94
2023/05/12 09:56:12;;;;;;;7.82;1.13;;;;;;;31.49;32.60;93992.75;5063112;28;20028;-91
2023/05/12 09:58:45;;;;;;;2.90;1.10;;;;;;;30.04;32.46;93990.75;5079556;28;20020;-92
2023/05/12 10:01:16;;;;;;;4.22;1.20;;;;;;;31.03;34.04;93991.06;5063383;28;20390;-92
2023/05/12 10:03:42;;;;;;;6.95;1.23;;;;;;;28.21;36.65;93983.50;5079377;28;20444;-90
2023/05/12 10:06:25;;;;;;;1.00;0.57;;;;;;;27.31;35.17;93984.38;5079425;28;20448;-92
2023/05/12 10:09:07;;;;;;;2.00;0.70;;;;;;;29.18;35.69;93990.31;5079449;28;20062;-91
2023/05/12 10:11:33;;;;;;;4.35;0.75;;;;;;;29.18;35.94;93995.72;5080007;28;20034;-92
2023/05/12 10:13:59;;;;;;;5.72;0.82;;;;;;;29.70;31.58;93994.16;5062904;28;20345;-92
2023/05/12 10:16:27;;;;;;;2.03;0.60;;;;;;;30.53;29.82;93986.34;5062878;28;20039;-92
2023/05/12 10:18:53;;;;;;;2.53;0.88;;;;;;;30.17;33.72;93985.59;5079187;28;20039;-92
2023/05/12 10:21:19;;;;;;;2.60;0.47;;;;;;;30.64;32.22;93997.03;5062627;28;20028;-92
2023/05/12 10:23:45;;;;;;;2.97;0.57;;;;;;;31.06;30.15;93989.50;5063031;28;20039;-92
2023/05/12 10:26:11;;;;;;;9.50;1.20;;;;;;;30.80;32.09;93997.19;5062498;28;20337;-91
2023/05/12 10:28:37;;;;;;;4.22;0.80;;;;;;;28.61;37.59;93986.78;5048647;28;20044;-93
2023/05/12 10:31:04;;;;;;;4.03;1.10;;;;;;;31.52;32.80;93987.28;5042722;28;20174;-93
2023/05/12 10:33:30;;;;;;;6.10;1.27;;;;;;;29.87;34.26;93994.38;5042792;28;20064;-92
2023/05/12 10:35:56;;;;;;;2.72;1.38;;;;;;;31.49;32.16;93988.09;5059235;28;20032;-93
2023/05/12 10:38:21;;;;;;;2.17;1.27;;;;;;;29.86;34.32;93992.88;5059175;28;20025;-91
2023/05/12 10:40:53;;;;;;;1.83;1.20;;;;;;;29.07;34.02;93995.00;5059066;28;20446;-92
2023/05/12 10:43:33;;;;;;;4.70;1.23;;;;;;;29.61;36.02;94001.94;5058933;28;20040;-90
2023/05/12 10:46:12;;;;;;;4.93;1.10;;;;;;;30.68;32.92;94011.25;5059397;28;20036;-92
2023/05/12 10:49:05;;;;;;;2.00;0.90;;;;;;;29.23;34.09;94015.31;5058982;28;20048;-91
2023/05/12 10:51:47;;;;;;;2.80;0.98;;;;;;;24.67;38.83;94027.31;5042478;28;20425;-89
2023/05/12 10:54:19;;;;;;;2.08;0.90;;;;;;;24.11;42.02;94045.75;5059345;28;20037;-90
2023/05/12 10:56:44;;;;;;;8.00;0.90;;;;;;;24.19;41.46;94036.72;5068434;28;20070;-91
2023/05/12 10:59:17;;;;;;;6.20;0.60;;;;;;;23.26;42.33;94034.13;5043388;28;20422;-91
2023/05/12 11:01:59;;;;;;;2.08;0.77;;;;;;;23.92;41.54;94026.00;5079650;28;20132;-91
2023/05/12 11:04:45;;;;;;;2.55;0.55;;;;;;;22.58;41.14;94058.50;5062993;28;20028;-91
2023/05/12 11:07:12;;;;;;;2.97;0.60;;;;;;;23.24;41.18;94045.19;5062741;28;20393;-89
2023/05/12 11:09:38;;;;;;;8.63;0.65;;;;;;;22.50;42.50;94032.78;5062698;28;20028;-90
2023/05/12 11:12:06;;;;;;;3.72;0.88;;;;;;;24.13;41.82;94038.13;5079663;28;20025;-92
2023/05/12 11:15:09;;;;;;;7.55;1.10;;;;;;;24.68;40.75;94039.56;5063148;28;20055;-91
2023/05/12 11:17:41;;;;;;;3.15;1.13;;;;;;;22.95;44.44;94052.69;5062616;28;20070;-91
2023/05/12 11:20:08;;;;;;;15.40;1.05;;;;;;;20.95;47.25;94047.56;5062655;28;20110;-91
2023/05/12 11:22:34;;;;;;;1.88;0.80;;;;;;;21.91;46.47;94054.00;5079113;28;20078;-92
2023/05/12 11:25:08;;;;;;;7.85;1.60;;;;;;;22.64;47.96;94054.41;5062622;28;20036;-91
2023/05/12 11:27:33;;;;;;;5.28;1.42;;;;;;;21.77;49.27;94078.47;5079362;28;20388;-91
2023/05/12 11:30:00;;;;;;;12.85;0.93;;;;;;;20.52;52.87;94086.31;5045763;28;20032;-90
2023/05/12 11:32:26;;;;;;;6.40;0.90;;;;;;;20.95;51.95;94081.41;5062054;28;20031;-91
2023/05/12 11:34:52;;;;;;;9.27;1.00;;;;;;;20.24;54.20;94073.75;5079044;28;20114;-91
2023/05/12 11:37:19;;;;;;;1.63;0.43;;;;;;;17.58;64.91;94061.34;5061998;28;20380;-91
2023/05/12 11:39:45;;;;;;;11.32;1.08;;;;;;;18.19;71.53;94062.91;5046211;28;20025;-91